Santa Cruz, CA (95064)

9:45 AM PDT on April 26, 2015 (GMT -0700)
Upper Westside | | Change Station
CLOSE
Current Station
Personal Weather Station
Location: Santa Cruz, CA
Elevation: 295 ft
Nearby Weather Stations

Elev 295 ft 36.98 °N, 122.04 °W | Updated 10 seconds ago

Clear
Clear
57.0 °F
Feels Like 57.0 °F
N
0.0
Wind Variable Wind from South
Gusts 0.0 mph

Today
High -- | Low -- °F
--% Chance of Precip.
Yesterday
High -- | Low -- °F
Precip. -- in
6:19 AM 7:52 PM
First Quarter, 57% visible
Pressure 30.15 in
Visibility 10.0 miles
Clouds Clear
Dew Point 45 °F
Humidity 65%
Rainfall 0.00 in
Snow Depth Not available.
UV 4.0 out of 12
Pollen 8.10 out of 12
Air Quality Not available.
Flu Activity Sporadic
METAR KWVI 261553Z AUTO 00000KT 10SM CLR 13/07 A3015 RMK AO2 SLP208 T01330072

More Conditions Fewer Conditions

Pressure 30.15 in
Visibility 10.0 miles
Clouds Clear
Dew Point 45 °F
Humidity 65%
Rainfall 0.00 in
Snow Depth Not available.
UV 4.0 out of 12
Pollen 8.10 out of 12
Air Quality Not available.
Flu Activity Sporadic
METAR KWVI 261553Z AUTO 00000KT 10SM CLR 13/07 A3015 RMK AO2 SLP208 T01330072

More Conditions Fewer Conditions

The full scope of the disaster following a powerful 7.8-magnitude earthquake in Nepal may not come into view for days, but global charities are already sending emergency aid. Click to see how you can help.

10-Day Weather Forecast

Almanac

Astronomy

Apr. 26, 2015 Rise Set
Actual Time
Civil Twilight
Nautical Twilight
Astronomical Twilight
Moon
Length of Visible Light
Length of Day
Tomorrow will be .
, % of the Moon is Illuminated

Today's Extremes

State Highs State Lows

Community

WunderPhotos

Upload Photos

1,817,054 photos uploaded!

WunderBlogs® & News

Nearby

Air Quality

  Air Quality AQ Index Pollutant
Not available.

Snow Depth

Station Depth Elevation

Earthquake Activity

City Distance Mag. Time & Date
Minimum magnitude displayed is 2.5.

Coastal Water Temperatures

Place Temperature

Stations

Nearby Weather Stations

Station Location Temp. Windchill Dew Point Humidity Wind Precip. Elev Updated Type